sensor_id;sensor_type;location;lat;lon;timestamp;P1;durP1;ratioP1;P2;durP2;ratioP2
7833;SDS011;3962;42.696;23.354;2023-08-06T00:00:37;5.77;;;5.57;;
7833;SDS011;3962;42.696;23.354;2023-08-06T00:03:04;5.33;;;5.13;;
7833;SDS011;3962;42.696;23.354;2023-08-06T00:05:30;5.20;;;5.00;;
7833;SDS011;3962;42.696;23.354;2023-08-06T00:07:57;6.37;;;6.13;;
7833;SDS011;3962;42.696;23.354;2023-08-06T00:10:24;5.63;;;5.43;;
7833;SDS011;3962;42.696;23.354;2023-08-06T00:12:52;5.53;;;5.33;;
7833;SDS011;3962;42.696;23.354;2023-08-06T00:15:19;6.77;;;6.47;;
7833;SDS011;3962;42.696;23.354;2023-08-06T00:17:46;5.30;;;5.10;;
7833;SDS011;3962;42.696;23.354;2023-08-06T00:20:13;5.33;;;5.13;;
7833;SDS011;3962;42.696;23.354;2023-08-06T00:22:39;5.33;;;5.13;;
7833;SDS011;3962;42.696;23.354;2023-08-06T00:25:06;5.50;;;5.30;;
7833;SDS011;3962;42.696;23.354;2023-08-06T00:27:34;5.57;;;5.37;;
7833;SDS011;3962;42.696;23.354;2023-08-06T00:30:02;5.27;;;5.07;;
7833;SDS011;3962;42.696;23.354;2023-08-06T00:32:29;6.23;;;6.03;;
7833;SDS011;3962;42.696;23.354;2023-08-06T00:34:56;6.57;;;6.27;;
7833;SDS011;3962;42.696;23.354;2023-08-06T00:37:23;5.10;;;4.90;;
7833;SDS011;3962;42.696;23.354;2023-08-06T00:39:49;6.33;;;6.10;;
7833;SDS011;3962;42.696;23.354;2023-08-06T00:42:16;4.97;;;4.77;;
7833;SDS011;3962;42.696;23.354;2023-08-06T00:44:45;5.10;;;4.90;;
7833;SDS011;3962;42.696;23.354;2023-08-06T00:47:14;5.57;;;5.37;;
7833;SDS011;3962;42.696;23.354;2023-08-06T00:49:41;5.07;;;4.87;;
7833;SDS011;3962;42.696;23.354;2023-08-06T00:52:08;5.57;;;5.37;;
7833;SDS011;3962;42.696;23.354;2023-08-06T00:54:35;5.47;;;5.27;;
7833;SDS011;3962;42.696;23.354;2023-08-06T00:57:03;5.60;;;5.40;;
7833;SDS011;3962;42.696;23.354;2023-08-06T00:59:31;5.60;;;5.40;;
7833;SDS011;3962;42.696;23.354;2023-08-06T01:01:58;6.30;;;6.10;;
7833;SDS011;3962;42.696;23.354;2023-08-06T01:04:26;6.27;;;6.00;;
7833;SDS011;3962;42.696;23.354;2023-08-06T01:06:56;5.60;;;5.40;;
7833;SDS011;3962;42.696;23.354;2023-08-06T01:09:31;5.57;;;5.37;;
7833;SDS011;3962;42.696;23.354;2023-08-06T01:12:06;5.67;;;5.47;;
7833;SDS011;3962;42.696;23.354;2023-08-06T01:14:45;5.73;;;5.53;;
7833;SDS011;3962;42.696;23.354;2023-08-06T01:17:18;5.00;;;4.80;;
7833;SDS011;3962;42.696;23.354;2023-08-06T01:19:47;5.73;;;5.53;;
7833;SDS011;3962;42.696;23.354;2023-08-06T01:22:15;5.83;;;5.63;;
7833;SDS011;3962;42.696;23.354;2023-08-06T01:24:42;6.10;;;5.90;;
7833;SDS011;3962;42.696;23.354;2023-08-06T01:27:14;5.63;;;5.43;;
7833;SDS011;3962;42.696;23.354;2023-08-06T01:29:50;6.50;;;6.20;;
7833;SDS011;3962;42.696;23.354;2023-08-06T01:32:23;5.90;;;5.70;;
7833;SDS011;3962;42.696;23.354;2023-08-06T01:34:51;5.50;;;5.30;;
7833;SDS011;3962;42.696;23.354;2023-08-06T01:37:21;5.47;;;5.27;;
7833;SDS011;3962;42.696;23.354;2023-08-06T01:39:49;6.07;;;5.87;;
7833;SDS011;3962;42.696;23.354;2023-08-06T01:42:16;5.37;;;5.17;;
7833;SDS011;3962;42.696;23.354;2023-08-06T01:44:43;5.33;;;5.13;;
7833;SDS011;3962;42.696;23.354;2023-08-06T01:47:09;5.33;;;5.13;;
7833;SDS011;3962;42.696;23.354;2023-08-06T01:49:36;5.67;;;5.47;;
7833;SDS011;3962;42.696;23.354;2023-08-06T01:52:03;5.27;;;5.07;;
7833;SDS011;3962;42.696;23.354;2023-08-06T01:54:32;5.77;;;5.57;;
7833;SDS011;3962;42.696;23.354;2023-08-06T01:56:59;5.50;;;5.30;;
7833;SDS011;3962;42.696;23.354;2023-08-06T01:59:25;5.33;;;5.13;;
7833;SDS011;3962;42.696;23.354;2023-08-06T02:01:52;5.80;;;5.60;;
7833;SDS011;3962;42.696;23.354;2023-08-06T02:04:19;5.30;;;5.10;;
7833;SDS011;3962;42.696;23.354;2023-08-06T02:06:46;5.23;;;5.03;;
7833;SDS011;3962;42.696;23.354;2023-08-06T02:09:13;5.10;;;4.90;;
7833;SDS011;3962;42.696;23.354;2023-08-06T02:11:41;5.40;;;5.20;;
7833;SDS011;3962;42.696;23.354;2023-08-06T02:14:07;5.47;;;5.27;;
7833;SDS011;3962;42.696;23.354;2023-08-06T02:16:34;5.60;;;5.40;;
7833;SDS011;3962;42.696;23.354;2023-08-06T02:19:01;6.17;;;5.93;;
7833;SDS011;3962;42.696;23.354;2023-08-06T02:21:28;5.50;;;5.30;;
7833;SDS011;3962;42.696;23.354;2023-08-06T02:23:54;5.57;;;5.37;;
7833;SDS011;3962;42.696;23.354;2023-08-06T02:26:21;6.83;;;6.53;;
7833;SDS011;3962;42.696;23.354;2023-08-06T02:28:50;6.73;;;6.43;;
7833;SDS011;3962;42.696;23.354;2023-08-06T02:31:16;5.87;;;5.67;;
7833;SDS011;3962;42.696;23.354;2023-08-06T02:33:43;6.03;;;5.83;;
7833;SDS011;3962;42.696;23.354;2023-08-06T02:36:10;6.60;;;6.30;;
7833;SDS011;3962;42.696;23.354;2023-08-06T02:38:37;7.13;;;6.73;;
7833;SDS011;3962;42.696;23.354;2023-08-06T02:41:04;5.67;;;5.47;;
7833;SDS011;3962;42.696;23.354;2023-08-06T02:43:31;5.47;;;5.27;;
7833;SDS011;3962;42.696;23.354;2023-08-06T02:45:59;6.83;;;6.53;;
7833;SDS011;3962;42.696;23.354;2023-08-06T02:48:26;7.30;;;7.00;;
7833;SDS011;3962;42.696;23.354;2023-08-06T02:50:56;5.40;;;5.20;;
7833;SDS011;3962;42.696;23.354;2023-08-06T02:53:24;5.87;;;5.57;;
7833;SDS011;3962;42.696;23.354;2023-08-06T02:55:51;6.47;;;6.17;;
7833;SDS011;3962;42.696;23.354;2023-08-06T02:58:17;6.13;;;5.83;;
7833;SDS011;3962;42.696;23.354;2023-08-06T03:00:50;5.43;;;5.23;;
7833;SDS011;3962;42.696;23.354;2023-08-06T03:03:27;5.63;;;5.23;;
7833;SDS011;3962;42.696;23.354;2023-08-06T03:05:54;5.80;;;5.60;;
7833;SDS011;3962;42.696;23.354;2023-08-06T03:08:21;6.33;;;6.03;;
7833;SDS011;3962;42.696;23.354;2023-08-06T03:10:48;6.07;;;5.87;;
7833;SDS011;3962;42.696;23.354;2023-08-06T03:13:15;5.37;;;5.17;;
7833;SDS011;3962;42.696;23.354;2023-08-06T03:15:42;5.70;;;5.50;;
7833;SDS011;3962;42.696;23.354;2023-08-06T03:18:10;5.83;;;5.63;;
7833;SDS011;3962;42.696;23.354;2023-08-06T03:20:37;6.17;;;5.87;;
7833;SDS011;3962;42.696;23.354;2023-08-06T03:23:04;6.13;;;5.87;;
7833;SDS011;3962;42.696;23.354;2023-08-06T03:25:30;5.53;;;5.33;;
7833;SDS011;3962;42.696;23.354;2023-08-06T03:27:57;5.23;;;5.03;;
7833;SDS011;3962;42.696;23.354;2023-08-06T03:30:24;5.73;;;5.47;;
7833;SDS011;3962;42.696;23.354;2023-08-06T03:32:51;6.03;;;5.73;;
7833;SDS011;3962;42.696;23.354;2023-08-06T03:35:19;5.70;;;5.50;;
7833;SDS011;3962;42.696;23.354;2023-08-06T03:37:45;5.50;;;5.30;;
7833;SDS011;3962;42.696;23.354;2023-08-06T03:40:13;5.27;;;5.07;;
7833;SDS011;3962;42.696;23.354;2023-08-06T03:42:40;5.57;;;5.37;;
7833;SDS011;3962;42.696;23.354;2023-08-06T03:45:07;5.33;;;5.13;;
7833;SDS011;3962;42.696;23.354;2023-08-06T03:47:34;5.20;;;5.00;;
7833;SDS011;3962;42.696;23.354;2023-08-06T03:50:01;5.27;;;5.07;;
7833;SDS011;3962;42.696;23.354;2023-08-06T03:52:30;6.13;;;5.83;;
7833;SDS011;3962;42.696;23.354;2023-08-06T03:54:56;6.73;;;6.43;;
7833;SDS011;3962;42.696;23.354;2023-08-06T03:57:23;6.77;;;6.47;;
7833;SDS011;3962;42.696;23.354;2023-08-06T03:59:50;5.63;;;5.43;;
7833;SDS011;3962;42.696;23.354;2023-08-06T04:02:17;6.50;;;6.23;;
7833;SDS011;3962;42.696;23.354;2023-08-06T04:04:44;7.33;;;6.97;;
7833;SDS011;3962;42.696;23.354;2023-08-06T04:07:10;5.90;;;5.70;;
7833;SDS011;3962;42.696;23.354;2023-08-06T04:09:52;6.67;;;6.37;;
7833;SDS011;3962;42.696;23.354;2023-08-06T04:12:19;5.87;;;5.67;;
7833;SDS011;3962;42.696;23.354;2023-08-06T04:14:46;6.47;;;6.23;;
7833;SDS011;3962;42.696;23.354;2023-08-06T04:17:13;5.30;;;5.10;;
7833;SDS011;3962;42.696;23.354;2023-08-06T04:19:39;6.00;;;5.80;;
7833;SDS011;3962;42.696;23.354;2023-08-06T04:22:06;4.97;;;4.77;;
7833;SDS011;3962;42.696;23.354;2023-08-06T04:24:33;5.13;;;4.93;;
7833;SDS011;3962;42.696;23.354;2023-08-06T04:27:01;5.70;;;5.50;;
7833;SDS011;3962;42.696;23.354;2023-08-06T04:29:28;4.93;;;4.73;;
7833;SDS011;3962;42.696;23.354;2023-08-06T04:31:55;5.43;;;5.23;;
7833;SDS011;3962;42.696;23.354;2023-08-06T04:34:22;5.27;;;5.07;;
7833;SDS011;3962;42.696;23.354;2023-08-06T04:36:48;4.87;;;4.67;;
7833;SDS011;3962;42.696;23.354;2023-08-06T04:39:15;4.73;;;4.53;;
7833;SDS011;3962;42.696;23.354;2023-08-06T04:41:42;5.50;;;5.30;;
7833;SDS011;3962;42.696;23.354;2023-08-06T04:44:10;5.47;;;5.27;;
7833;SDS011;3962;42.696;23.354;2023-08-06T04:46:37;5.77;;;5.57;;
7833;SDS011;3962;42.696;23.354;2023-08-06T04:49:04;5.00;;;4.80;;
7833;SDS011;3962;42.696;23.354;2023-08-06T04:51:31;5.10;;;4.90;;
7833;SDS011;3962;42.696;23.354;2023-08-06T04:53:58;5.67;;;5.47;;
7833;SDS011;3962;42.696;23.354;2023-08-06T04:56:24;5.73;;;5.53;;
7833;SDS011;3962;42.696;23.354;2023-08-06T04:58:51;5.67;;;5.47;;
7833;SDS011;3962;42.696;23.354;2023-08-06T05:01:19;6.57;;;6.27;;
7833;SDS011;3962;42.696;23.354;2023-08-06T05:03:46;5.70;;;5.40;;
7833;SDS011;3962;42.696;23.354;2023-08-06T05:06:13;5.33;;;5.13;;
7833;SDS011;3962;42.696;23.354;2023-08-06T05:08:40;5.73;;;5.53;;
7833;SDS011;3962;42.696;23.354;2023-08-06T05:11:07;5.20;;;5.00;;
7833;SDS011;3962;42.696;23.354;2023-08-06T05:13:33;5.43;;;5.23;;
7833;SDS011;3962;42.696;23.354;2023-08-06T05:16:00;5.50;;;5.30;;
7833;SDS011;3962;42.696;23.354;2023-08-06T05:18:28;6.13;;;5.93;;
7833;SDS011;3962;42.696;23.354;2023-08-06T05:20:55;6.17;;;5.97;;
7833;SDS011;3962;42.696;23.354;2023-08-06T05:23:22;5.33;;;5.13;;
7833;SDS011;3962;42.696;23.354;2023-08-06T05:25:49;5.27;;;5.07;;
7833;SDS011;3962;42.696;23.354;2023-08-06T05:28:16;5.87;;;5.67;;
7833;SDS011;3962;42.696;23.354;2023-08-06T05:30:43;5.73;;;5.53;;
7833;SDS011;3962;42.696;23.354;2023-08-06T05:33:09;5.47;;;5.27;;
7833;SDS011;3962;42.696;23.354;2023-08-06T05:35:38;5.73;;;5.53;;
7833;SDS011;3962;42.696;23.354;2023-08-06T05:38:04;5.67;;;5.47;;
7833;SDS011;3962;42.696;23.354;2023-08-06T05:40:33;5.83;;;5.63;;
7833;SDS011;3962;42.696;23.354;2023-08-06T05:43:00;5.13;;;4.93;;
7833;SDS011;3962;42.696;23.354;2023-08-06T05:45:26;5.43;;;5.23;;
7833;SDS011;3962;42.696;23.354;2023-08-06T05:47:53;5.77;;;5.57;;
7833;SDS011;3962;42.696;23.354;2023-08-06T05:50:23;5.97;;;5.70;;
7833;SDS011;3962;42.696;23.354;2023-08-06T05:52:51;5.43;;;5.23;;
7833;SDS011;3962;42.696;23.354;2023-08-06T05:55:18;4.90;;;4.70;;
7833;SDS011;3962;42.696;23.354;2023-08-06T05:57:45;6.10;;;5.90;;
7833;SDS011;3962;42.696;23.354;2023-08-06T06:00:12;6.40;;;6.10;;
7833;SDS011;3962;42.696;23.354;2023-08-06T06:02:38;5.27;;;5.07;;
7833;SDS011;3962;42.696;23.354;2023-08-06T06:05:05;5.57;;;5.37;;
7833;SDS011;3962;42.696;23.354;2023-08-06T06:07:32;5.50;;;5.30;;
7833;SDS011;3962;42.696;23.354;2023-08-06T06:10:00;5.13;;;4.93;;
7833;SDS011;3962;42.696;23.354;2023-08-06T06:12:27;5.17;;;4.97;;
7833;SDS011;3962;42.696;23.354;2023-08-06T06:14:54;6.17;;;5.97;;
7833;SDS011;3962;42.696;23.354;2023-08-06T06:17:21;5.00;;;4.80;;
7833;SDS011;3962;42.696;23.354;2023-08-06T06:19:48;6.30;;;6.00;;
7833;SDS011;3962;42.696;23.354;2023-08-06T06:22:15;5.90;;;5.60;;
7833;SDS011;3962;42.696;23.354;2023-08-06T06:24:42;6.10;;;5.90;;
7833;SDS011;3962;42.696;23.354;2023-08-06T06:27:10;5.60;;;5.40;;
7833;SDS011;3962;42.696;23.354;2023-08-06T06:29:36;5.63;;;5.43;;
7833;SDS011;3962;42.696;23.354;2023-08-06T06:32:04;5.47;;;5.27;;
7833;SDS011;3962;42.696;23.354;2023-08-06T06:34:31;5.87;;;5.67;;
7833;SDS011;3962;42.696;23.354;2023-08-06T06:36:57;5.33;;;5.13;;
7833;SDS011;3962;42.696;23.354;2023-08-06T06:39:24;5.10;;;4.90;;
7833;SDS011;3962;42.696;23.354;2023-08-06T06:41:51;5.47;;;5.27;;
7833;SDS011;3962;42.696;23.354;2023-08-06T06:44:19;6.10;;;5.90;;
7833;SDS011;3962;42.696;23.354;2023-08-06T06:46:46;5.97;;;5.77;;
7833;SDS011;3962;42.696;23.354;2023-08-06T06:49:13;6.00;;;5.80;;
7833;SDS011;3962;42.696;23.354;2023-08-06T06:51:39;5.30;;;5.10;;
7833;SDS011;3962;42.696;23.354;2023-08-06T06:54:06;6.53;;;6.23;;
7833;SDS011;3962;42.696;23.354;2023-08-06T06:56:33;5.20;;;5.00;;
7833;SDS011;3962;42.696;23.354;2023-08-06T06:59:00;6.50;;;6.20;;
7833;SDS011;3962;42.696;23.354;2023-08-06T07:01:28;5.80;;;5.60;;
7833;SDS011;3962;42.696;23.354;2023-08-06T07:03:55;6.50;;;6.20;;
7833;SDS011;3962;42.696;23.354;2023-08-06T07:06:22;5.10;;;4.90;;
7833;SDS011;3962;42.696;23.354;2023-08-06T07:08:49;5.67;;;5.47;;
7833;SDS011;3962;42.696;23.354;2023-08-06T07:11:16;4.73;;;4.53;;
7833;SDS011;3962;42.696;23.354;2023-08-06T07:13:42;5.23;;;5.03;;
7833;SDS011;3962;42.696;23.354;2023-08-06T07:16:09;5.60;;;5.17;;
7833;SDS011;3962;42.696;23.354;2023-08-06T07:18:37;5.10;;;4.90;;
7833;SDS011;3962;42.696;23.354;2023-08-06T07:21:04;4.47;;;4.27;;
7833;SDS011;3962;42.696;23.354;2023-08-06T07:23:31;4.73;;;4.53;;
7833;SDS011;3962;42.696;23.354;2023-08-06T07:25:58;5.70;;;5.50;;
7833;SDS011;3962;42.696;23.354;2023-08-06T07:28:24;5.97;;;5.67;;
7833;SDS011;3962;42.696;23.354;2023-08-06T07:30:51;4.70;;;4.50;;
7833;SDS011;3962;42.696;23.354;2023-08-06T07:33:18;5.13;;;4.93;;
7833;SDS011;3962;42.696;23.354;2023-08-06T07:35:46;4.60;;;4.40;;
7833;SDS011;3962;42.696;23.354;2023-08-06T07:38:13;5.00;;;4.80;;
7833;SDS011;3962;42.696;23.354;2023-08-06T07:40:40;5.47;;;5.27;;
7833;SDS011;3962;42.696;23.354;2023-08-06T07:43:08;5.97;;;5.67;;
7833;SDS011;3962;42.696;23.354;2023-08-06T07:45:35;5.43;;;5.23;;
7833;SDS011;3962;42.696;23.354;2023-08-06T07:48:04;4.83;;;4.63;;
7833;SDS011;3962;42.696;23.354;2023-08-06T07:50:31;5.50;;;5.30;;
7833;SDS011;3962;42.696;23.354;2023-08-06T07:53:00;4.47;;;4.27;;
7833;SDS011;3962;42.696;23.354;2023-08-06T07:55:26;5.60;;;5.40;;
7833;SDS011;3962;42.696;23.354;2023-08-06T07:57:53;5.00;;;4.80;;
7833;SDS011;3962;42.696;23.354;2023-08-06T08:00:20;3.90;;;3.77;;
7833;SDS011;3962;42.696;23.354;2023-08-06T08:02:47;4.47;;;4.27;;
7833;SDS011;3962;42.696;23.354;2023-08-06T08:05:14;5.37;;;5.17;;
7833;SDS011;3962;42.696;23.354;2023-08-06T08:07:40;5.50;;;5.20;;
7833;SDS011;3962;42.696;23.354;2023-08-06T08:10:09;5.00;;;4.80;;
7833;SDS011;3962;42.696;23.354;2023-08-06T08:12:36;4.43;;;4.23;;
7833;SDS011;3962;42.696;23.354;2023-08-06T08:15:03;5.25;;;5.05;;
7833;SDS011;3962;42.696;23.354;2023-08-06T08:17:30;6.17;;;5.97;;
7833;SDS011;3962;42.696;23.354;2023-08-06T08:19:57;5.10;;;4.90;;
7833;SDS011;3962;42.696;23.354;2023-08-06T08:22:24;4.40;;;4.20;;
7833;SDS011;3962;42.696;23.354;2023-08-06T08:24:51;5.10;;;4.90;;
7833;SDS011;3962;42.696;23.354;2023-08-06T08:27:19;4.37;;;4.17;;
7833;SDS011;3962;42.696;23.354;2023-08-06T08:29:46;5.07;;;4.87;;
7833;SDS011;3962;42.696;23.354;2023-08-06T08:32:12;5.30;;;5.00;;
7833;SDS011;3962;42.696;23.354;2023-08-06T08:34:39;4.60;;;4.40;;
7833;SDS011;3962;42.696;23.354;2023-08-06T08:37:06;4.67;;;4.47;;
7833;SDS011;3962;42.696;23.354;2023-08-06T08:39:33;3.80;;;3.60;;
7833;SDS011;3962;42.696;23.354;2023-08-06T08:41:59;4.13;;;3.93;;
7833;SDS011;3962;42.696;23.354;2023-08-06T08:44:28;3.97;;;3.87;;
7833;SDS011;3962;42.696;23.354;2023-08-06T08:46:58;4.40;;;4.20;;
7833;SDS011;3962;42.696;23.354;2023-08-06T08:49:26;5.50;;;5.20;;
7833;SDS011;3962;42.696;23.354;2023-08-06T08:51:53;4.90;;;4.70;;
7833;SDS011;3962;42.696;23.354;2023-08-06T08:54:23;5.83;;;5.63;;
7833;SDS011;3962;42.696;23.354;2023-08-06T08:56:50;4.97;;;4.77;;
7833;SDS011;3962;42.696;23.354;2023-08-06T08:59:17;4.63;;;4.43;;
7833;SDS011;3962;42.696;23.354;2023-08-06T09:01:45;5.43;;;5.23;;
7833;SDS011;3962;42.696;23.354;2023-08-06T09:04:16;4.40;;;4.20;;
7833;SDS011;3962;42.696;23.354;2023-08-06T09:06:45;4.70;;;4.50;;
7833;SDS011;3962;42.696;23.354;2023-08-06T09:09:13;4.20;;;4.03;;
7833;SDS011;3962;42.696;23.354;2023-08-06T09:11:45;4.67;;;4.47;;
7833;SDS011;3962;42.696;23.354;2023-08-06T09:14:14;4.60;;;4.40;;
7833;SDS011;3962;42.696;23.354;2023-08-06T09:16:42;4.90;;;4.70;;
7833;SDS011;3962;42.696;23.354;2023-08-06T09:19:11;4.57;;;4.27;;
7833;SDS011;3962;42.696;23.354;2023-08-06T09:21:40;3.73;;;3.63;;
7833;SDS011;3962;42.696;23.354;2023-08-06T09:24:08;4.60;;;4.40;;
7833;SDS011;3962;42.696;23.354;2023-08-06T09:26:36;4.63;;;4.43;;
7833;SDS011;3962;42.696;23.354;2023-08-06T09:29:04;3.77;;;3.67;;
7833;SDS011;3962;42.696;23.354;2023-08-06T09:31:32;4.10;;;4.00;;
7833;SDS011;3962;42.696;23.354;2023-08-06T09:34:00;4.27;;;4.07;;
7833;SDS011;3962;42.696;23.354;2023-08-06T09:36:28;4.03;;;3.93;;
7833;SDS011;3962;42.696;23.354;2023-08-06T09:38:56;4.50;;;4.30;;
7833;SDS011;3962;42.696;23.354;2023-08-06T09:41:26;4.77;;;4.57;;
7833;SDS011;3962;42.696;23.354;2023-08-06T09:43:54;5.00;;;4.80;;
7833;SDS011;3962;42.696;23.354;2023-08-06T09:46:21;4.80;;;4.50;;
7833;SDS011;3962;42.696;23.354;2023-08-06T09:48:47;4.93;;;4.63;;
7833;SDS011;3962;42.696;23.354;2023-08-06T09:51:15;4.57;;;4.37;;
7833;SDS011;3962;42.696;23.354;2023-08-06T09:53:44;4.20;;;4.00;;
7833;SDS011;3962;42.696;23.354;2023-08-06T09:56:13;4.03;;;3.90;;
7833;SDS011;3962;42.696;23.354;2023-08-06T09:58:41;3.93;;;3.83;;
7833;SDS011;3962;42.696;23.354;2023-08-06T10:01:09;4.47;;;4.27;;
7833;SDS011;3962;42.696;23.354;2023-08-06T10:03:37;4.67;;;4.47;;
7833;SDS011;3962;42.696;23.354;2023-08-06T10:06:05;4.60;;;4.40;;
7833;SDS011;3962;42.696;23.354;2023-08-06T10:08:34;7.10;;;6.40;;
7833;SDS011;3962;42.696;23.354;2023-08-06T10:11:02;3.80;;;3.70;;
7833;SDS011;3962;42.696;23.354;2023-08-06T10:13:30;4.83;;;4.60;;
7833;SDS011;3962;42.696;23.354;2023-08-06T10:16:00;4.70;;;4.50;;
7833;SDS011;3962;42.696;23.354;2023-08-06T10:18:29;5.10;;;4.90;;
7833;SDS011;3962;42.696;23.354;2023-08-06T10:20:56;4.33;;;4.13;;
7833;SDS011;3962;42.696;23.354;2023-08-06T10:23:32;4.60;;;4.40;;
7833;SDS011;3962;42.696;23.354;2023-08-06T10:26:00;4.70;;;4.50;;
7833;SDS011;3962;42.696;23.354;2023-08-06T10:28:33;5.47;;;5.20;;
7833;SDS011;3962;42.696;23.354;2023-08-06T10:31:01;4.63;;;4.43;;
7833;SDS011;3962;42.696;23.354;2023-08-06T10:33:39;4.10;;;4.00;;
7833;SDS011;3962;42.696;23.354;2023-08-06T10:36:08;4.30;;;4.13;;
7833;SDS011;3962;42.696;23.354;2023-08-06T10:38:36;4.07;;;3.97;;
7833;SDS011;3962;42.696;23.354;2023-08-06T10:41:16;4.40;;;4.20;;
7833;SDS011;3962;42.696;23.354;2023-08-06T10:43:45;4.40;;;4.20;;
7833;SDS011;3962;42.696;23.354;2023-08-06T10:46:21;4.67;;;4.47;;
7833;SDS011;3962;42.696;23.354;2023-08-06T10:48:49;4.60;;;4.40;;
7833;SDS011;3962;42.696;23.354;2023-08-06T10:51:17;4.67;;;4.47;;
7833;SDS011;3962;42.696;23.354;2023-08-06T10:53:44;4.67;;;4.47;;
7833;SDS011;3962;42.696;23.354;2023-08-06T10:56:12;4.50;;;4.30;;
7833;SDS011;3962;42.696;23.354;2023-08-06T10:58:40;4.20;;;4.03;;
7833;SDS011;3962;42.696;23.354;2023-08-06T11:01:08;5.23;;;5.03;;
7833;SDS011;3962;42.696;23.354;2023-08-06T11:03:35;4.33;;;4.13;;
7833;SDS011;3962;42.696;23.354;2023-08-06T11:06:02;4.23;;;4.07;;
7833;SDS011;3962;42.696;23.354;2023-08-06T11:08:32;4.93;;;4.73;;
7833;SDS011;3962;42.696;23.354;2023-08-06T11:11:08;5.30;;;5.10;;
7833;SDS011;3962;42.696;23.354;2023-08-06T11:13:36;4.30;;;4.10;;
7833;SDS011;3962;42.696;23.354;2023-08-06T11:16:05;5.00;;;4.80;;
7833;SDS011;3962;42.696;23.354;2023-08-06T11:18:32;4.70;;;4.50;;
7833;SDS011;3962;42.696;23.354;2023-08-06T11:20:59;4.30;;;4.10;;
7833;SDS011;3962;42.696;23.354;2023-08-06T11:23:26;4.27;;;4.10;;
7833;SDS011;3962;42.696;23.354;2023-08-06T11:25:54;4.37;;;4.17;;
7833;SDS011;3962;42.696;23.354;2023-08-06T11:28:21;4.70;;;4.50;;
7833;SDS011;3962;42.696;23.354;2023-08-06T11:30:47;4.73;;;4.53;;
7833;SDS011;3962;42.696;23.354;2023-08-06T11:33:17;4.17;;;4.07;;
7833;SDS011;3962;42.696;23.354;2023-08-06T11:35:47;4.70;;;4.50;;
7833;SDS011;3962;42.696;23.354;2023-08-06T11:38:14;4.70;;;4.50;;
7833;SDS011;3962;42.696;23.354;2023-08-06T11:40:43;3.90;;;3.80;;
7833;SDS011;3962;42.696;23.354;2023-08-06T11:43:10;5.13;;;4.93;;
7833;SDS011;3962;42.696;23.354;2023-08-06T11:45:38;4.40;;;4.20;;
7833;SDS011;3962;42.696;23.354;2023-08-06T11:48:05;4.87;;;4.67;;
7833;SDS011;3962;42.696;23.354;2023-08-06T11:50:36;4.30;;;4.10;;
7833;SDS011;3962;42.696;23.354;2023-08-06T11:53:04;4.47;;;4.27;;
7833;SDS011;3962;42.696;23.354;2023-08-06T11:55:31;4.23;;;4.07;;
7833;SDS011;3962;42.696;23.354;2023-08-06T11:58:02;4.20;;;4.00;;
7833;SDS011;3962;42.696;23.354;2023-08-06T12:00:30;4.23;;;4.07;;
7833;SDS011;3962;42.696;23.354;2023-08-06T12:02:57;4.30;;;4.10;;
7833;SDS011;3962;42.696;23.354;2023-08-06T12:05:28;4.40;;;4.20;;
7833;SDS011;3962;42.696;23.354;2023-08-06T12:07:58;4.07;;;3.97;;
7833;SDS011;3962;42.696;23.354;2023-08-06T12:10:26;4.17;;;3.97;;
7833;SDS011;3962;42.696;23.354;2023-08-06T12:12:53;4.00;;;3.80;;
7833;SDS011;3962;42.696;23.354;2023-08-06T12:15:20;3.67;;;3.57;;
7833;SDS011;3962;42.696;23.354;2023-08-06T12:17:48;4.33;;;4.13;;
7833;SDS011;3962;42.696;23.354;2023-08-06T12:20:15;4.23;;;4.03;;
7833;SDS011;3962;42.696;23.354;2023-08-06T12:22:42;4.53;;;4.33;;
7833;SDS011;3962;42.696;23.354;2023-08-06T12:25:12;3.70;;;3.60;;
7833;SDS011;3962;42.696;23.354;2023-08-06T12:27:39;4.33;;;4.13;;
7833;SDS011;3962;42.696;23.354;2023-08-06T12:30:07;4.60;;;4.40;;
7833;SDS011;3962;42.696;23.354;2023-08-06T12:32:34;5.03;;;4.83;;
7833;SDS011;3962;42.696;23.354;2023-08-06T12:35:01;4.80;;;4.60;;
7833;SDS011;3962;42.696;23.354;2023-08-06T12:37:29;4.03;;;3.93;;
7833;SDS011;3962;42.696;23.354;2023-08-06T12:39:56;4.57;;;4.37;;
7833;SDS011;3962;42.696;23.354;2023-08-06T12:42:24;5.17;;;4.97;;
7833;SDS011;3962;42.696;23.354;2023-08-06T12:44:51;4.07;;;3.97;;
7833;SDS011;3962;42.696;23.354;2023-08-06T12:47:18;4.30;;;4.10;;
7833;SDS011;3962;42.696;23.354;2023-08-06T12:49:45;4.13;;;3.93;;
7833;SDS011;3962;42.696;23.354;2023-08-06T12:52:12;4.43;;;4.23;;
7833;SDS011;3962;42.696;23.354;2023-08-06T12:54:40;4.63;;;4.43;;
7833;SDS011;3962;42.696;23.354;2023-08-06T12:57:07;4.87;;;4.67;;
7833;SDS011;3962;42.696;23.354;2023-08-06T12:59:35;4.53;;;4.33;;
7833;SDS011;3962;42.696;23.354;2023-08-06T13:02:02;4.53;;;4.33;;
7833;SDS011;3962;42.696;23.354;2023-08-06T13:04:30;4.77;;;4.57;;
7833;SDS011;3962;42.696;23.354;2023-08-06T13:06:59;4.43;;;4.23;;
7833;SDS011;3962;42.696;23.354;2023-08-06T13:09:26;4.73;;;4.53;;
7833;SDS011;3962;42.696;23.354;2023-08-06T13:11:53;4.90;;;4.70;;
7833;SDS011;3962;42.696;23.354;2023-08-06T13:14:19;4.53;;;4.33;;
7833;SDS011;3962;42.696;23.354;2023-08-06T13:16:48;4.60;;;4.40;;
7833;SDS011;3962;42.696;23.354;2023-08-06T13:19:15;4.33;;;4.13;;
7833;SDS011;3962;42.696;23.354;2023-08-06T13:24:28;4.83;;;4.63;;
7833;SDS011;3962;42.696;23.354;2023-08-06T13:26:55;4.83;;;4.63;;
7833;SDS011;3962;42.696;23.354;2023-08-06T13:29:22;4.17;;;3.97;;
7833;SDS011;3962;42.696;23.354;2023-08-06T13:31:51;4.10;;;4.00;;
7833;SDS011;3962;42.696;23.354;2023-08-06T13:34:17;4.80;;;4.60;;
7833;SDS011;3962;42.696;23.354;2023-08-06T13:36:44;5.20;;;4.90;;
7833;SDS011;3962;42.696;23.354;2023-08-06T13:39:11;4.67;;;4.47;;
7833;SDS011;3962;42.696;23.354;2023-08-06T13:41:41;4.53;;;4.33;;
7833;SDS011;3962;42.696;23.354;2023-08-06T13:44:08;4.50;;;4.30;;
7833;SDS011;3962;42.696;23.354;2023-08-06T13:46:35;4.50;;;4.30;;
7833;SDS011;3962;42.696;23.354;2023-08-06T13:49:03;4.83;;;4.60;;
7833;SDS011;3962;42.696;23.354;2023-08-06T13:51:30;4.17;;;3.97;;
7833;SDS011;3962;42.696;23.354;2023-08-06T13:53:59;4.27;;;4.07;;
7833;SDS011;3962;42.696;23.354;2023-08-06T13:56:25;4.27;;;4.07;;
7833;SDS011;3962;42.696;23.354;2023-08-06T13:58:52;4.40;;;4.20;;
7833;SDS011;3962;42.696;23.354;2023-08-06T14:01:19;4.20;;;4.00;;
7833;SDS011;3962;42.696;23.354;2023-08-06T14:03:46;4.40;;;4.20;;
7833;SDS011;3962;42.696;23.354;2023-08-06T14:06:14;4.20;;;4.00;;
7833;SDS011;3962;42.696;23.354;2023-08-06T14:08:41;4.27;;;4.10;;
7833;SDS011;3962;42.696;23.354;2023-08-06T14:11:08;4.90;;;4.70;;
7833;SDS011;3962;42.696;23.354;2023-08-06T14:13:35;3.80;;;3.70;;
7833;SDS011;3962;42.696;23.354;2023-08-06T14:16:02;4.37;;;4.17;;
7833;SDS011;3962;42.696;23.354;2023-08-06T14:18:29;4.13;;;4.00;;
7833;SDS011;3962;42.696;23.354;2023-08-06T14:20:56;3.63;;;3.53;;
7833;SDS011;3962;42.696;23.354;2023-08-06T14:23:24;4.47;;;4.27;;
7833;SDS011;3962;42.696;23.354;2023-08-06T14:25:51;3.87;;;3.77;;
7833;SDS011;3962;42.696;23.354;2023-08-06T14:28:18;4.90;;;4.70;;
7833;SDS011;3962;42.696;23.354;2023-08-06T14:30:45;4.47;;;4.27;;
7833;SDS011;3962;42.696;23.354;2023-08-06T14:33:11;3.83;;;3.73;;
7833;SDS011;3962;42.696;23.354;2023-08-06T14:35:38;4.97;;;4.77;;
7833;SDS011;3962;42.696;23.354;2023-08-06T14:38:05;4.53;;;4.33;;
7833;SDS011;3962;42.696;23.354;2023-08-06T14:40:34;4.33;;;4.13;;
7833;SDS011;3962;42.696;23.354;2023-08-06T14:43:03;4.57;;;4.37;;
7833;SDS011;3962;42.696;23.354;2023-08-06T14:45:30;4.40;;;4.20;;
7833;SDS011;3962;42.696;23.354;2023-08-06T14:47:57;5.00;;;4.80;;
7833;SDS011;3962;42.696;23.354;2023-08-06T14:50:23;4.47;;;4.27;;
7833;SDS011;3962;42.696;23.354;2023-08-06T14:52:50;5.03;;;4.83;;
7833;SDS011;3962;42.696;23.354;2023-08-06T14:55:17;4.90;;;4.70;;
7833;SDS011;3962;42.696;23.354;2023-08-06T14:57:50;3.83;;;3.73;;
7833;SDS011;3962;42.696;23.354;2023-08-06T15:00:17;3.90;;;3.80;;
7833;SDS011;3962;42.696;23.354;2023-08-06T15:02:44;5.10;;;4.90;;
7833;SDS011;3962;42.696;23.354;2023-08-06T15:05:11;4.77;;;4.57;;